createdAt,value
2017-03-24T00:00:20.317Z,9.43
2017-03-24T00:01:30.594Z,9.42
2017-03-24T00:02:39.631Z,9.5
2017-03-24T00:03:49.339Z,9.46
2017-03-24T00:04:58.619Z,9.46
2017-03-24T00:06:08.066Z,9.42
2017-03-24T00:07:17.272Z,9.4
2017-03-24T00:08:26.585Z,9.48
2017-03-24T00:09:37.515Z,9.47
2017-03-24T00:10:49.585Z,9.46
2017-03-24T00:12:00.728Z,9.43
2017-03-24T00:13:11.685Z,9.43
2017-03-24T00:14:20.737Z,9.48
2017-03-24T00:15:30.344Z,9.4
2017-03-24T00:16:39.303Z,9.4
2017-03-24T00:17:49.383Z,9.43
2017-03-24T00:18:58.608Z,9.47
2017-03-24T00:20:09.325Z,9.5
2017-03-24T00:21:18.277Z,9.48
2017-03-24T00:22:27.850Z,9.48
2017-03-24T00:23:36.807Z,9.46
2017-03-24T00:24:48.494Z,9.46
2017-03-24T00:25:58.315Z,9.46
2017-03-24T00:27:07.826Z,9.35
2017-03-24T00:28:19.097Z,9.32
2017-03-24T00:29:28.059Z,9.35
2017-03-24T00:30:38.460Z,9.32
2017-03-24T00:31:47.577Z,9.36
2017-03-24T00:32:57.714Z,9.24
2017-03-24T00:34:06.674Z,9.17
2017-03-24T00:35:16.640Z,9.15
2017-03-24T00:36:25.846Z,9.14
2017-03-24T00:37:35.464Z,9.1
2017-03-24T00:38:44.428Z,9.05
2017-03-24T00:39:54.794Z,9.02
2017-03-24T00:41:03.748Z,9.04
2017-03-24T00:42:14.573Z,8.99
2017-03-24T00:43:23.539Z,8.92
2017-03-24T00:44:33.422Z,8.86
2017-03-24T00:45:43.703Z,8.91
2017-03-24T00:46:53.203Z,8.87
2017-03-24T00:48:04.663Z,8.86
2017-03-24T00:49:13.707Z,8.91
2017-03-24T00:50:25.012Z,8.91
2017-03-24T00:51:33.963Z,8.94
2017-03-24T00:52:44.319Z,8.76
2017-03-24T00:53:53.546Z,8.84
2017-03-24T00:55:03.297Z,8.83
2017-03-24T00:56:12.345Z,8.73
2017-03-24T00:57:22.306Z,8.79
2017-03-24T00:58:32.177Z,8.74
2017-03-24T00:59:42.598Z,8.83
2017-03-24T01:00:51.559Z,8.74
2017-03-24T01:02:00.526Z,8.73
2017-03-24T01:03:12.251Z,8.71
2017-03-24T01:04:21.540Z,8.71
2017-03-24T01:05:31.417Z,8.74
2017-03-24T01:06:40.378Z,8.7
2017-03-24T01:07:49.425Z,8.73
2017-03-24T01:08:58.381Z,8.68
2017-03-24T01:10:07.909Z,8.68
2017-03-24T01:11:17.118Z,8.66
2017-03-24T01:12:26.511Z,8.7
2017-03-24T01:13:35.608Z,8.63
2017-03-24T01:14:45.057Z,8.73
2017-03-24T01:15:54.283Z,8.68
2017-03-24T01:17:03.975Z,8.65
2017-03-24T01:18:13.107Z,8.61
2017-03-24T01:19:22.963Z,8.71
2017-03-24T01:20:32.257Z,8.62
2017-03-24T01:21:42.098Z,8.62
2017-03-24T01:22:51.392Z,8.63
2017-03-24T01:24:01.262Z,8.47
2017-03-24T01:25:10.221Z,8.5
2017-03-24T01:26:20.959Z,8.45
2017-03-24T01:27:29.913Z,8.58
2017-03-24T01:28:39.991Z,8.48
2017-03-24T01:29:49.038Z,8.56
2017-03-24T01:30:58.974Z,8.47
2017-03-24T01:32:07.938Z,8.45
2017-03-24T01:33:18.149Z,8.53
2017-03-24T01:34:27.449Z,8.43
2017-03-24T01:35:37.013Z,8.41
2017-03-24T01:36:45.966Z,8.44
2017-03-24T01:37:56.232Z,8.33
2017-03-24T01:39:05.259Z,8.37
2017-03-24T01:40:16.714Z,8.38
2017-03-24T01:41:25.783Z,8.36
2017-03-24T01:42:35.588Z,8.36
2017-03-24T01:43:45.255Z,8.34
2017-03-24T01:44:54.946Z,8.33
2017-03-24T01:46:07.091Z,8.3
2017-03-24T01:47:16.047Z,8.22
2017-03-24T01:48:28.098Z,8.29
2017-03-24T01:49:37.868Z,8.28
2017-03-24T01:50:47.617Z,8.26
2017-03-24T01:51:57.696Z,8.1
2017-03-24T01:53:06.655Z,8.23
2017-03-24T01:54:16.159Z,8.23
2017-03-24T01:55:25.119Z,8.25
2017-03-24T01:56:35.821Z,8.19
2017-03-24T01:57:45.031Z,8.19
2017-03-24T01:58:55.380Z,8.07
2017-03-24T02:00:04.427Z,8.05
2017-03-24T02:01:13.594Z,8.01
2017-03-24T02:02:22.572Z,8.02
2017-03-24T02:03:33.643Z,7.95
2017-03-24T02:04:42.636Z,7.98
2017-03-24T02:05:53.208Z,7.95
2017-03-24T02:07:02.166Z,7.89
2017-03-24T02:08:11.854Z,7.93
2017-03-24T02:09:21.075Z,7.95
2017-03-24T02:10:30.035Z,7.92
2017-03-24T02:11:38.995Z,7.98
2017-03-24T02:12:47.957Z,8
2017-03-24T02:13:56.917Z,7.9
2017-03-24T02:15:06.132Z,7.93
2017-03-24T02:16:15.086Z,7.89
2017-03-24T02:17:24.053Z,7.89
2017-03-24T02:18:33.010Z,7.87
2017-03-24T02:19:41.973Z,7.83
2017-03-24T02:20:51.591Z,7.85
2017-03-24T02:22:00.551Z,7.97
2017-03-24T02:23:09.507Z,7.97
2017-03-24T02:24:18.475Z,7.93
2017-03-24T02:25:27.435Z,8.01
2017-03-24T02:26:36.649Z,7.9
2017-03-24T02:27:45.608Z,7.87
2017-03-24T02:28:54.891Z,7.86
2017-03-24T02:30:03.947Z,7.85
2017-03-24T02:31:12.987Z,7.8
2017-03-24T02:32:22.193Z,7.83
2017-03-24T02:33:31.145Z,7.82
2017-03-24T02:34:40.107Z,7.83
2017-03-24T02:35:49.069Z,7.87
2017-03-24T02:36:58.152Z,7.85
2017-03-24T02:38:07.500Z,7.9
2017-03-24T02:39:16.460Z,7.87
2017-03-24T02:40:25.424Z,7.86
2017-03-24T02:41:34.379Z,7.89
2017-03-24T02:42:43.339Z,7.85
2017-03-24T02:43:52.552Z,7.87
2017-03-24T02:45:01.513Z,7.83
2017-03-24T02:46:10.469Z,7.83
2017-03-24T02:47:19.422Z,7.69
2017-03-24T02:48:28.384Z,7.72
2017-03-24T02:49:37.593Z,7.72
2017-03-24T02:50:46.547Z,7.72
2017-03-24T02:51:55.586Z,7.72
2017-03-24T02:53:04.549Z,7.74
2017-03-24T02:54:13.513Z,7.67
2017-03-24T02:55:22.725Z,7.74
2017-03-24T02:56:31.679Z,7.71
2017-03-24T02:57:40.652Z,7.67
2017-03-24T02:58:49.612Z,7.67
2017-03-24T02:59:58.573Z,7.63
2017-03-24T03:01:08.108Z,7.67
2017-03-24T03:02:17.067Z,7.57
2017-03-24T03:03:26.020Z,7.6
2017-03-24T03:04:34.976Z,7.6
2017-03-24T03:05:43.975Z,7.57
2017-03-24T03:06:53.180Z,7.49
2017-03-24T03:08:02.136Z,7.52
2017-03-24T03:09:11.188Z,7.53
2017-03-24T03:10:20.471Z,7.49
2017-03-24T03:11:29.422Z,7.57
2017-03-24T03:12:38.627Z,7.46
2017-03-24T03:13:47.999Z,7.49
2017-03-24T03:14:56.962Z,7.45
2017-03-24T03:16:05.918Z,7.45
2017-03-24T03:17:14.871Z,7.45
2017-03-24T03:18:24.401Z,7.45
2017-03-24T03:19:33.369Z,7.48
2017-03-24T03:20:42.328Z,7.49
2017-03-24T03:21:51.290Z,7.49
2017-03-24T03:23:00.374Z,7.48
2017-03-24T03:24:09.577Z,7.43
2017-03-24T03:25:18.537Z,7.43
2017-03-24T03:26:27.489Z,7.42
2017-03-24T03:27:36.454Z,7.39
2017-03-24T03:28:45.417Z,7.37
2017-03-24T03:29:54.680Z,7.4
2017-03-24T03:31:03.746Z,7.35
2017-03-24T03:32:12.702Z,7.35
2017-03-24T03:33:21.702Z,7.28
2017-03-24T03:34:30.661Z,7.35
2017-03-24T03:35:39.857Z,7.31
2017-03-24T03:36:48.815Z,7.17
2017-03-24T03:37:58.095Z,7.23
2017-03-24T03:39:07.142Z,7.23
2017-03-24T03:40:16.104Z,7.28
2017-03-24T03:41:25.305Z,7.24
2017-03-24T03:42:34.347Z,7.28
2017-03-24T03:43:43.305Z,7.28
2017-03-24T03:44:52.264Z,7.3
2017-03-24T03:46:01.219Z,7.3
2017-03-24T03:47:10.429Z,7.3
2017-03-24T03:48:19.390Z,7.24
2017-03-24T03:49:28.348Z,7.24
2017-03-24T03:50:37.306Z,7.27
2017-03-24T03:51:46.259Z,7.12
2017-03-24T03:52:55.474Z,7.25
2017-03-24T03:54:04.439Z,7.16
2017-03-24T03:55:13.397Z,7.21
2017-03-24T03:56:22.349Z,7.25
2017-03-24T03:57:31.305Z,7.16
2017-03-24T03:58:40.514Z,7.25
2017-03-24T03:59:49.474Z,7.23
2017-03-24T04:00:58.432Z,7.28
2017-03-24T04:02:07.386Z,7.28
2017-03-24T04:03:16.342Z,7.27
2017-03-24T04:04:25.554Z,7.21
2017-03-24T04:05:34.843Z,7.16
2017-03-24T04:06:43.796Z,7.2
2017-03-24T04:07:52.751Z,7.25
2017-03-24T04:09:02.031Z,7.24
2017-03-24T04:10:11.240Z,7.23
2017-03-24T04:11:20.188Z,7.2
2017-03-24T04:12:29.138Z,7.21
2017-03-24T04:13:38.102Z,7.25
2017-03-24T04:14:47.059Z,7.15
2017-03-24T04:15:56.269Z,7.25
2017-03-24T04:17:05.236Z,7.24
2017-03-24T04:18:14.191Z,7.25
2017-03-24T04:19:23.157Z,7.17
2017-03-24T04:20:32.117Z,7.16
2017-03-24T04:21:41.406Z,7.23
2017-03-24T04:22:50.362Z,7.25
2017-03-24T04:23:59.328Z,7.25
2017-03-24T04:25:08.284Z,7.2
2017-03-24T04:26:17.237Z,7.25
2017-03-24T04:27:26.528Z,7.15
2017-03-24T04:28:35.487Z,7.24
2017-03-24T04:29:44.445Z,7.27
2017-03-24T04:30:53.402Z,7.16
2017-03-24T04:32:02.354Z,7.1
2017-03-24T04:33:11.609Z,7.13
2017-03-24T04:34:20.590Z,7.13
2017-03-24T04:35:29.546Z,7.27
2017-03-24T04:36:38.503Z,7.13
2017-03-24T04:37:47.459Z,7.17
2017-03-24T04:38:56.719Z,7.16
2017-03-24T04:40:05.678Z,7.13
2017-03-24T04:41:14.762Z,7.16
2017-03-24T04:42:23.716Z,7.15
2017-03-24T04:43:32.677Z,7.16
2017-03-24T04:44:41.978Z,7.12
2017-03-24T04:45:50.930Z,7.17
2017-03-24T04:46:59.881Z,7.2
2017-03-24T04:48:08.833Z,7.17
2017-03-24T04:49:17.799Z,7.16
2017-03-24T04:50:27.001Z,7.1
2017-03-24T04:51:35.960Z,7.17
2017-03-24T04:52:44.923Z,7.17
2017-03-24T04:53:53.876Z,7.03
2017-03-24T04:55:02.834Z,7.03
2017-03-24T04:56:12.042Z,7.06
2017-03-24T04:57:20.997Z,6.99
2017-03-24T04:58:29.945Z,7.03
2017-03-24T04:59:38.896Z,7.1
2017-03-24T05:00:47.937Z,7.06
2017-03-24T05:01:57.192Z,7.05
2017-03-24T05:03:06.239Z,7.09
2017-03-24T05:04:15.198Z,7.03
2017-03-24T05:05:24.160Z,6.95
2017-03-24T05:06:33.116Z,6.94
2017-03-24T05:07:42.698Z,6.91
2017-03-24T05:08:51.670Z,6.95
2017-03-24T05:10:00.631Z,6.95
2017-03-24T05:11:09.586Z,6.87
2017-03-24T05:12:18.537Z,6.87
2017-03-24T05:13:27.793Z,6.85
2017-03-24T05:14:36.760Z,6.81
2017-03-24T05:15:45.717Z,6.73
2017-03-24T05:16:54.671Z,6.84
2017-03-24T05:18:03.632Z,6.89
2017-03-24T05:19:12.897Z,6.84
2017-03-24T05:20:21.863Z,6.85
2017-03-24T05:21:30.821Z,6.84
2017-03-24T05:22:40.165Z,6.77
2017-03-24T05:23:49.124Z,6.67
2017-03-24T05:24:58.717Z,6.7
2017-03-24T05:26:07.670Z,6.7
2017-03-24T05:27:16.622Z,6.73
2017-03-24T05:28:25.992Z,6.71
2017-03-24T05:29:34.945Z,6.73
2017-03-24T05:30:44.198Z,6.73
2017-03-24T05:31:53.148Z,6.74
2017-03-24T05:33:02.106Z,6.77
2017-03-24T05:34:11.071Z,6.73
2017-03-24T05:35:20.030Z,6.76
2017-03-24T05:36:29.287Z,6.69
2017-03-24T05:37:38.241Z,6.76
2017-03-24T05:38:47.209Z,6.81
2017-03-24T05:39:56.170Z,6.88
2017-03-24T05:41:05.218Z,6.87
2017-03-24T05:42:14.421Z,6.8
2017-03-24T05:43:23.380Z,6.85
2017-03-24T05:44:32.342Z,6.84
2017-03-24T05:45:41.293Z,6.89
2017-03-24T05:46:50.288Z,6.94
2017-03-24T05:47:59.554Z,6.95
2017-03-24T05:49:09.182Z,6.95
2017-03-24T05:50:18.138Z,6.91
2017-03-24T05:51:27.092Z,6.95
2017-03-24T05:52:36.050Z,6.98
2017-03-24T05:53:45.312Z,6.87
2017-03-24T05:54:54.269Z,6.8
2017-03-24T05:56:03.228Z,6.81
2017-03-24T05:57:12.191Z,6.81
2017-03-24T05:58:21.157Z,6.81
2017-03-24T05:59:30.422Z,6.85
2017-03-24T06:00:39.386Z,6.91
2017-03-24T06:01:48.339Z,6.91
2017-03-24T06:02:57.297Z,6.98
2017-03-24T06:04:06.271Z,7.02
2017-03-24T06:05:15.543Z,7.02
2017-03-24T06:06:24.539Z,7.05
2017-03-24T06:07:33.492Z,7.09
2017-03-24T06:08:42.456Z,7.17
2017-03-24T06:09:51.413Z,7.16
2017-03-24T06:11:00.672Z,7.05
2017-03-24T06:12:09.629Z,7.03
2017-03-24T06:13:18.588Z,6.97
2017-03-24T06:14:27.550Z,6.97
2017-03-24T06:15:36.504Z,6.94
2017-03-24T06:16:45.759Z,6.91
2017-03-24T06:17:54.730Z,6.94
2017-03-24T06:19:03.909Z,6.89
2017-03-24T06:20:12.869Z,6.85
2017-03-24T06:21:21.825Z,6.85
2017-03-24T06:22:31.076Z,6.85
2017-03-24T06:23:40.127Z,6.79
2017-03-24T06:24:49.137Z,6.76
2017-03-24T06:25:58.097Z,6.81
2017-03-24T06:27:07.633Z,6.91
2017-03-24T06:28:18.134Z,6.94
2017-03-24T06:29:32.807Z,6.88
2017-03-24T06:30:41.863Z,6.74
2017-03-24T06:31:51.005Z,6.85
2017-03-24T06:32:59.996Z,6.84
2017-03-24T06:34:09.368Z,6.85
2017-03-24T06:35:18.558Z,6.91
2017-03-24T06:36:27.597Z,6.85
2017-03-24T06:37:36.654Z,6.98
2017-03-24T06:38:45.689Z,6.91
2017-03-24T06:39:54.942Z,6.91
2017-03-24T06:41:03.909Z,6.99
2017-03-24T06:42:12.995Z,6.91
2017-03-24T06:43:21.969Z,6.94
2017-03-24T06:44:30.970Z,6.94
2017-03-24T06:45:40.302Z,6.99
2017-03-24T06:46:49.402Z,7.05
2017-03-24T06:47:58.443Z,7.09
2017-03-24T06:49:07.613Z,7.12
2017-03-24T06:50:16.732Z,7.15
2017-03-24T06:51:25.996Z,7.15
2017-03-24T06:52:35.079Z,7.27
2017-03-24T06:53:44.159Z,7.2
2017-03-24T06:54:53.140Z,7.27
2017-03-24T06:56:02.253Z,7.16
2017-03-24T06:57:11.507Z,7.28
2017-03-24T06:58:20.552Z,7.25
2017-03-24T06:59:29.526Z,7.2
2017-03-24T07:00:38.705Z,7.32
2017-03-24T07:01:47.997Z,7.31
2017-03-24T07:02:57.653Z,7.43
2017-03-24T07:04:06.624Z,7.53
2017-03-24T07:05:15.720Z,7.49
2017-03-24T07:06:24.778Z,7.5
2017-03-24T07:07:33.932Z,7.55
2017-03-24T07:08:43.149Z,7.63
2017-03-24T07:09:52.126Z,7.72
2017-03-24T07:11:01.102Z,7.8
2017-03-24T07:12:10.140Z,7.86
2017-03-24T07:13:19.107Z,7.93
2017-03-24T07:14:28.460Z,7.9
2017-03-24T07:15:37.558Z,7.92
2017-03-24T07:16:46.519Z,7.97
2017-03-24T07:17:55.575Z,8.04
2017-03-24T07:19:04.542Z,8.18
2017-03-24T07:20:13.809Z,8.07
2017-03-24T07:21:22.867Z,8.1
2017-03-24T07:22:31.948Z,8.1
2017-03-24T07:23:40.906Z,8.11
2017-03-24T07:24:49.976Z,8.2
2017-03-24T07:25:59.233Z,8.19
2017-03-24T07:27:08.268Z,8.41
2017-03-24T07:28:17.230Z,8.41
2017-03-24T07:29:26.191Z,8.52
2017-03-24T07:30:35.568Z,8.48
2017-03-24T07:31:45.149Z,8.53
2017-03-24T07:32:54.163Z,8.52
2017-03-24T07:34:03.189Z,8.47
2017-03-24T07:35:12.295Z,8.5
2017-03-24T07:36:21.422Z,8.47
2017-03-24T07:37:30.784Z,8.62
2017-03-24T07:38:39.746Z,8.63
2017-03-24T07:39:48.704Z,8.71
2017-03-24T07:40:57.790Z,8.68
2017-03-24T07:42:06.745Z,8.7
2017-03-24T07:43:15.961Z,8.68
2017-03-24T07:44:25.100Z,8.84
2017-03-24T07:45:34.254Z,8.89
2017-03-24T07:46:43.288Z,8.84
2017-03-24T07:47:52.276Z,8.8
2017-03-24T07:49:01.615Z,8.86
2017-03-24T07:50:10.722Z,8.83
2017-03-24T07:51:19.833Z,8.91
2017-03-24T07:52:28.835Z,8.94
2017-03-24T07:53:37.800Z,8.91
2017-03-24T07:54:47.056Z,8.91
2017-03-24T07:55:56.015Z,8.89
2017-03-24T07:57:04.966Z,9.08
2017-03-24T07:58:13.928Z,9.15
2017-03-24T07:59:22.881Z,9.21
2017-03-24T08:00:32.181Z,9.21
2017-03-24T08:01:41.456Z,9.2
2017-03-24T08:02:50.421Z,9.11
2017-03-24T08:03:59.457Z,9.28
2017-03-24T08:05:08.821Z,9.28
2017-03-24T08:06:18.106Z,9.33
2017-03-24T08:07:27.343Z,9.28
2017-03-24T08:08:36.308Z,9.4
2017-03-24T08:09:45.258Z,9.36
2017-03-24T08:10:54.218Z,9.4
2017-03-24T08:12:03.424Z,9.43
2017-03-24T08:13:12.373Z,9.46
2017-03-24T08:14:21.327Z,9.4
2017-03-24T08:15:30.275Z,9.4
2017-03-24T08:16:39.239Z,9.46
2017-03-24T08:17:48.581Z,9.42
2017-03-24T08:18:57.529Z,9.47
2017-03-24T08:20:06.524Z,9.46
2017-03-24T08:21:15.478Z,9.53
2017-03-24T08:22:24.519Z,9.56
2017-03-24T08:23:33.734Z,9.57
2017-03-24T08:24:42.689Z,9.65
2017-03-24T08:25:51.740Z,9.69
2017-03-24T08:27:00.705Z,9.72
2017-03-24T08:28:09.656Z,9.86
2017-03-24T08:29:18.859Z,9.84
2017-03-24T08:30:27.992Z,9.83
2017-03-24T08:31:36.946Z,9.86
2017-03-24T08:32:45.908Z,9.87
2017-03-24T08:33:54.859Z,9.93
2017-03-24T08:35:04.114Z,9.91
2017-03-24T08:36:13.069Z,9.97
2017-03-24T08:37:22.033Z,9.99
2017-03-24T08:38:30.982Z,10.05
2017-03-24T08:39:39.934Z,10.2
2017-03-24T08:40:49.189Z,10.27
2017-03-24T08:41:58.229Z,10.26
2017-03-24T08:43:08.493Z,10.3
2017-03-24T08:44:17.448Z,10.27
2017-03-24T08:45:26.410Z,10.3
2017-03-24T08:46:35.705Z,10.36
2017-03-24T08:47:44.774Z,10.34
2017-03-24T08:48:53.729Z,10.48
2017-03-24T08:50:02.770Z,10.51
2017-03-24T08:51:11.828Z,10.53
2017-03-24T08:52:21.176Z,10.51
2017-03-24T08:53:30.129Z,10.48
2017-03-24T08:54:39.184Z,10.48
2017-03-24T08:55:48.227Z,10.59
2017-03-24T08:56:57.330Z,10.52
2017-03-24T08:58:06.647Z,10.52
2017-03-24T08:59:15.683Z,10.61
2017-03-24T09:00:24.683Z,10.55
2017-03-24T09:01:33.751Z,10.66
2017-03-24T09:02:42.844Z,10.7
2017-03-24T09:03:52.111Z,10.63
2017-03-24T09:05:01.068Z,10.64
2017-03-24T09:06:10.125Z,10.71
2017-03-24T09:07:19.156Z,10.74
2017-03-24T09:08:28.244Z,10.82
2017-03-24T09:09:37.526Z,10.85
2017-03-24T09:10:46.565Z,10.86
2017-03-24T09:11:55.557Z,10.91
2017-03-24T09:13:04.609Z,10.85
2017-03-24T09:14:14.199Z,10.89
2017-03-24T09:15:24.367Z,10.99
2017-03-24T09:16:33.530Z,11.03
2017-03-24T09:17:42.588Z,11.07
2017-03-24T09:18:51.603Z,11.07
2017-03-24T09:20:00.553Z,11.19
2017-03-24T09:21:09.809Z,11.1
2017-03-24T09:22:18.762Z,11.19
2017-03-24T09:23:27.732Z,11.27
2017-03-24T09:24:36.687Z,11.25
2017-03-24T09:25:45.684Z,11.36
2017-03-24T09:26:54.980Z,11.35
2017-03-24T09:28:04.031Z,11.49
2017-03-24T09:29:12.994Z,11.55
2017-03-24T09:30:21.949Z,11.49
2017-03-24T09:31:30.926Z,11.47
2017-03-24T09:32:40.335Z,11.49
2017-03-24T09:33:49.291Z,11.6
2017-03-24T09:34:58.277Z,11.52
2017-03-24T09:36:07.339Z,11.62
2017-03-24T09:37:16.342Z,11.64
2017-03-24T09:38:25.688Z,11.67
2017-03-24T09:39:34.802Z,11.67
2017-03-24T09:40:43.859Z,11.65
2017-03-24T09:41:53.037Z,11.69
2017-03-24T09:43:02.103Z,11.69
2017-03-24T09:44:12.713Z,11.82
2017-03-24T09:45:23.445Z,11.79
2017-03-24T09:46:32.399Z,11.9
2017-03-24T09:47:41.455Z,11.86
2017-03-24T09:48:50.404Z,11.94
2017-03-24T09:49:59.630Z,11.88
2017-03-24T09:51:08.621Z,11.88
2017-03-24T09:52:17.592Z,11.86
2017-03-24T09:53:27.757Z,11.94
2017-03-24T09:54:38.600Z,11.91
2017-03-24T09:55:48.120Z,11.98
2017-03-24T09:56:57.388Z,11.96
2017-03-24T09:58:07.179Z,11.94
2017-03-24T09:59:17.614Z,11.94
2017-03-24T10:00:31.030Z,12.02
2017-03-24T10:01:40.870Z,11.96
2017-03-24T10:02:50.001Z,11.98
2017-03-24T10:03:59.177Z,12.02
2017-03-24T10:05:08.183Z,12.02
2017-03-24T10:06:17.162Z,11.95
2017-03-24T10:07:26.415Z,12.04
2017-03-24T10:08:35.702Z,12.1
2017-03-24T10:09:44.798Z,12.09
2017-03-24T10:10:53.829Z,12.19
2017-03-24T10:12:02.780Z,12.17
2017-03-24T10:13:12.039Z,12.24
2017-03-24T10:14:21.000Z,12.21
2017-03-24T10:15:29.998Z,12.29
2017-03-24T10:16:38.963Z,12.39
2017-03-24T10:17:47.917Z,12.39
2017-03-24T10:18:57.129Z,12.42
2017-03-24T10:20:06.090Z,12.42
2017-03-24T10:21:15.043Z,12.46
2017-03-24T10:22:24.002Z,12.47
2017-03-24T10:23:32.954Z,12.62
2017-03-24T10:24:42.217Z,12.67
2017-03-24T10:25:51.233Z,12.68
2017-03-24T10:27:00.187Z,12.68
2017-03-24T10:28:09.210Z,12.68
2017-03-24T10:29:18.282Z,12.68
2017-03-24T10:30:27.640Z,12.74
2017-03-24T10:31:36.691Z,12.75
2017-03-24T10:32:45.682Z,12.7
2017-03-24T10:33:54.638Z,12.74
2017-03-24T10:35:03.595Z,12.7
2017-03-24T10:36:12.857Z,12.77
2017-03-24T10:37:21.822Z,12.79
2017-03-24T10:38:30.776Z,12.75
2017-03-24T10:39:39.730Z,12.85
2017-03-24T10:40:48.680Z,12.78
2017-03-24T10:41:57.935Z,12.86
2017-03-24T10:43:06.977Z,12.87
2017-03-24T10:44:15.932Z,12.86
2017-03-24T10:45:24.886Z,12.89
2017-03-24T10:46:33.846Z,12.93
2017-03-24T10:47:43.065Z,13.01
2017-03-24T10:48:52.019Z,13
2017-03-24T10:50:00.972Z,12.97
2017-03-24T10:51:09.947Z,13.07
2017-03-24T10:52:19.049Z,13.07
2017-03-24T10:53:28.429Z,13.23
2017-03-24T10:54:37.721Z,13.17
2017-03-24T10:55:46.692Z,13.12
2017-03-24T10:56:55.643Z,13.22
2017-03-24T10:58:04.606Z,13.28
2017-03-24T10:59:13.812Z,13.39
2017-03-24T11:00:22.770Z,13.45
2017-03-24T11:01:31.763Z,13.62
2017-03-24T11:02:40.719Z,13.66
2017-03-24T11:03:49.674Z,13.75
2017-03-24T11:04:58.889Z,13.7
2017-03-24T11:06:07.848Z,13.71
2017-03-24T11:07:16.803Z,13.6
2017-03-24T11:08:25.756Z,13.6
2017-03-24T11:09:34.746Z,13.7
2017-03-24T11:10:44.046Z,13.59
2017-03-24T11:11:53.004Z,13.64
2017-03-24T11:13:01.964Z,13.69
2017-03-24T11:14:10.924Z,13.64
2017-03-24T11:15:19.877Z,13.67
2017-03-24T11:16:29.084Z,13.77
2017-03-24T11:17:38.044Z,13.84
2017-03-24T11:18:46.997Z,13.91
2017-03-24T11:19:55.950Z,13.85
2017-03-24T11:21:04.905Z,13.81
2017-03-24T11:22:14.161Z,13.85
2017-03-24T11:23:23.121Z,13.81
2017-03-24T11:24:32.078Z,13.82
2017-03-24T11:25:41.032Z,13.85
2017-03-24T11:26:49.990Z,13.96
2017-03-24T11:27:59.189Z,13.96
2017-03-24T11:29:08.142Z,13.85
2017-03-24T11:30:17.100Z,13.82
2017-03-24T11:31:26.056Z,13.82
2017-03-24T11:32:35.009Z,13.88
2017-03-24T11:33:44.215Z,13.95
2017-03-24T11:34:53.170Z,13.95
2017-03-24T11:36:02.121Z,13.84
2017-03-24T11:37:11.079Z,13.77
2017-03-24T11:38:20.074Z,13.78
2017-03-24T11:39:29.279Z,13.78
2017-03-24T11:40:38.232Z,13.81
2017-03-24T11:41:47.189Z,13.82
2017-03-24T11:42:56.474Z,13.87
2017-03-24T11:44:05.425Z,13.91
2017-03-24T11:45:14.680Z,13.92
2017-03-24T11:46:23.635Z,14
2017-03-24T11:47:32.677Z,13.89
2017-03-24T11:48:41.631Z,14.03
2017-03-24T11:49:50.579Z,14.02
2017-03-24T11:50:59.835Z,14.15
2017-03-24T11:52:08.791Z,13.99
2017-03-24T11:53:17.746Z,14.02
2017-03-24T11:54:26.703Z,14
2017-03-24T11:55:35.674Z,13.99
2017-03-24T11:56:44.879Z,13.99
2017-03-24T11:57:53.840Z,14.03
2017-03-24T11:59:02.795Z,13.97
2017-03-24T12:00:11.763Z,14
2017-03-24T12:01:20.724Z,13.97
2017-03-24T12:02:29.985Z,14.06
2017-03-24T12:03:38.941Z,13.88
2017-03-24T12:04:47.895Z,13.96
2017-03-24T12:05:56.859Z,13.99
2017-03-24T12:07:05.967Z,13.97
2017-03-24T12:08:15.269Z,13.97
2017-03-24T12:09:24.424Z,14.07
2017-03-24T12:10:33.377Z,14.04
2017-03-24T12:11:42.334Z,13.96
2017-03-24T12:12:51.298Z,13.88
2017-03-24T12:14:00.558Z,13.96
2017-03-24T12:15:09.517Z,13.89
2017-03-24T12:16:18.473Z,14.04
2017-03-24T12:17:27.438Z,13.99
2017-03-24T12:18:36.394Z,14
2017-03-24T12:19:45.737Z,14.04
2017-03-24T12:20:54.692Z,14.07
2017-03-24T12:22:03.733Z,14.09
2017-03-24T12:23:12.872Z,14.22
2017-03-24T12:24:21.829Z,14.25
2017-03-24T12:25:31.353Z,14.27
2017-03-24T12:26:40.416Z,14.28
2017-03-24T12:27:49.399Z,14.21
2017-03-24T12:28:58.358Z,14.18
2017-03-24T12:30:07.315Z,14.25
2017-03-24T12:31:17.136Z,14.32
2017-03-24T12:32:26.095Z,14.33
2017-03-24T12:33:35.056Z,14.24
2017-03-24T12:34:44.015Z,14.27
2017-03-24T12:35:52.973Z,14.33
2017-03-24T12:37:02.234Z,14.29
2017-03-24T12:38:11.190Z,14.21
2017-03-24T12:39:20.235Z,14.24
2017-03-24T12:40:29.193Z,14.21
2017-03-24T12:41:38.152Z,14.17
2017-03-24T12:42:47.364Z,14.12
2017-03-24T12:43:56.329Z,14.1
2017-03-24T12:45:05.289Z,14.15
2017-03-24T12:46:14.249Z,14.21
2017-03-24T12:47:23.213Z,14.25
2017-03-24T12:48:32.554Z,14.32
2017-03-24T12:49:41.518Z,14.32
2017-03-24T12:50:50.481Z,14.5
2017-03-24T12:51:59.447Z,14.28
2017-03-24T12:53:08.403Z,14.4
2017-03-24T12:54:17.617Z,14.36
2017-03-24T12:55:26.669Z,14.42
2017-03-24T12:56:35.961Z,14.33
2017-03-24T12:57:44.921Z,14.43
2017-03-24T12:58:53.875Z,14.4
2017-03-24T13:00:03.318Z,14.37
2017-03-24T13:01:12.502Z,14.51
2017-03-24T13:02:21.498Z,14.54
2017-03-24T13:03:30.458Z,14.61
2017-03-24T13:04:39.414Z,14.65
2017-03-24T13:05:48.681Z,14.65
2017-03-24T13:06:57.645Z,14.6
2017-03-24T13:08:06.699Z,14.68
2017-03-24T13:09:15.750Z,14.62
2017-03-24T13:10:24.712Z,14.7
2017-03-24T13:11:34.613Z,14.61
2017-03-24T13:12:43.591Z,14.69
2017-03-24T13:13:52.667Z,14.7
2017-03-24T13:15:01.622Z,14.72
2017-03-24T13:16:10.579Z,14.78
2017-03-24T13:17:19.871Z,14.65
2017-03-24T13:18:29.107Z,14.69
2017-03-24T13:19:38.087Z,14.7
2017-03-24T13:20:47.192Z,14.75
2017-03-24T13:21:56.234Z,14.83
2017-03-24T13:23:05.498Z,14.92
2017-03-24T13:24:14.460Z,14.81
2017-03-24T13:25:23.602Z,14.89
2017-03-24T13:26:32.564Z,14.78
2017-03-24T13:27:41.532Z,14.88
2017-03-24T13:28:50.772Z,14.95
2017-03-24T13:29:59.735Z,14.88
2017-03-24T13:31:09.110Z,14.78
2017-03-24T13:32:18.078Z,14.86
2017-03-24T13:33:27.034Z,14.92
2017-03-24T13:34:36.294Z,14.89
2017-03-24T13:35:45.255Z,14.78
2017-03-24T13:36:54.214Z,14.91
2017-03-24T13:38:03.175Z,14.88
2017-03-24T13:39:12.133Z,14.92
2017-03-24T13:40:21.408Z,14.95
2017-03-24T13:41:30.372Z,14.96
2017-03-24T13:42:39.343Z,15.02
2017-03-24T13:43:48.314Z,14.99
2017-03-24T13:44:57.274Z,14.89
2017-03-24T13:46:06.536Z,14.89
2017-03-24T13:47:15.504Z,14.78
2017-03-24T13:48:24.552Z,14.92
2017-03-24T13:49:33.515Z,14.81
2017-03-24T13:50:42.475Z,14.88
2017-03-24T13:51:51.743Z,14.94
2017-03-24T13:53:00.702Z,14.98
2017-03-24T13:54:09.661Z,15.02
2017-03-24T13:55:18.622Z,14.94
2017-03-24T13:56:27.585Z,15.03
2017-03-24T13:57:37.123Z,15.03
2017-03-24T13:58:46.097Z,14.96
2017-03-24T13:59:55.059Z,14.98
2017-03-24T14:01:04.021Z,15.01
2017-03-24T14:02:12.988Z,14.96
2017-03-24T14:03:22.276Z,14.98
2017-03-24T14:04:31.247Z,14.99
2017-03-24T14:05:40.204Z,14.98
2017-03-24T14:06:49.164Z,14.89
2017-03-24T14:07:58.129Z,14.78
2017-03-24T14:09:07.409Z,14.92
2017-03-24T14:10:16.745Z,14.83
2017-03-24T14:11:25.869Z,14.95
2017-03-24T14:12:34.978Z,14.95
2017-03-24T14:13:44.164Z,14.94
2017-03-24T14:14:53.845Z,15.01
2017-03-24T14:16:02.990Z,14.96
2017-03-24T14:17:12.196Z,15.1
2017-03-24T14:18:21.304Z,15.02
2017-03-24T14:19:30.469Z,14.98
2017-03-24T14:20:39.840Z,14.99
2017-03-24T14:21:48.823Z,15.07
2017-03-24T14:22:57.928Z,15.03
2017-03-24T14:24:06.959Z,15.01
2017-03-24T14:25:16.075Z,15.09
2017-03-24T14:26:25.467Z,15.02
2017-03-24T14:27:34.671Z,15.03
2017-03-24T14:28:43.674Z,15.01
2017-03-24T14:29:52.681Z,14.99
2017-03-24T14:31:01.817Z,14.99
2017-03-24T14:32:11.114Z,14.94
2017-03-24T14:33:20.186Z,15.01
2017-03-24T14:34:29.347Z,15.06
2017-03-24T14:35:38.445Z,15.01
2017-03-24T14:36:47.596Z,15.02
2017-03-24T14:37:56.875Z,15.1
2017-03-24T14:39:05.838Z,15.17
2017-03-24T14:40:15.327Z,15.2
2017-03-24T14:41:24.840Z,15.19
2017-03-24T14:42:34.161Z,15.23
2017-03-24T14:43:43.520Z,15.17
2017-03-24T14:44:52.667Z,15.29
2017-03-24T14:46:01.714Z,15.31
2017-03-24T14:47:10.765Z,15.2
2017-03-24T14:48:19.724Z,15.16
2017-03-24T14:49:29.091Z,15.2
2017-03-24T14:50:38.144Z,15.35
2017-03-24T14:51:47.177Z,15.29
2017-03-24T14:52:56.149Z,15.35
2017-03-24T14:54:05.514Z,15.38
2017-03-24T14:55:14.872Z,15.36
2017-03-24T14:56:24.180Z,15.31
2017-03-24T14:57:33.134Z,15.38
2017-03-24T14:58:42.101Z,15.34
2017-03-24T14:59:51.727Z,15.36
2017-03-24T15:01:00.990Z,15.27
2017-03-24T15:02:09.950Z,15.28
2017-03-24T15:03:18.996Z,15.17
2017-03-24T15:04:28.287Z,15.21
2017-03-24T15:05:37.337Z,15.2
2017-03-24T15:06:46.598Z,15.09
2017-03-24T15:07:55.561Z,15.02
2017-03-24T15:09:04.518Z,15.01
2017-03-24T15:10:13.472Z,14.98
2017-03-24T15:11:22.436Z,15.01